sensor_id;sensor_type;location;lat;lon;timestamp;P1;durP1;ratioP1;P2;durP2;ratioP2
43700;SDS011;58809;47.984;7.964;2022-12-18T00:01:18;48.92;;;22.73;;
43700;SDS011;58809;47.984;7.964;2022-12-18T00:04:22;45.15;;;21.60;;
43700;SDS011;58809;47.984;7.964;2022-12-18T00:07:25;61.70;;;23.98;;
43700;SDS011;58809;47.984;7.964;2022-12-18T00:10:27;36.83;;;20.58;;
43700;SDS011;58809;47.984;7.964;2022-12-18T00:13:29;39.28;;;20.48;;
43700;SDS011;58809;47.984;7.964;2022-12-18T00:16:31;43.42;;;23.13;;
43700;SDS011;58809;47.984;7.964;2022-12-18T00:19:34;44.47;;;22.30;;
43700;SDS011;58809;47.984;7.964;2022-12-18T00:22:35;52.40;;;22.33;;
43700;SDS011;58809;47.984;7.964;2022-12-18T00:25:37;46.03;;;22.02;;
43700;SDS011;58809;47.984;7.964;2022-12-18T00:28:39;41.78;;;21.48;;
43700;SDS011;58809;47.984;7.964;2022-12-18T00:31:41;38.22;;;21.33;;
43700;SDS011;58809;47.984;7.964;2022-12-18T00:34:43;38.17;;;20.55;;
43700;SDS011;58809;47.984;7.964;2022-12-18T00:37:45;35.10;;;20.60;;
43700;SDS011;58809;47.984;7.964;2022-12-18T00:40:46;32.55;;;18.02;;
43700;SDS011;58809;47.984;7.964;2022-12-18T00:43:48;41.50;;;20.75;;
43700;SDS011;58809;47.984;7.964;2022-12-18T00:46:50;38.53;;;19.80;;
43700;SDS011;58809;47.984;7.964;2022-12-18T00:49:51;39.00;;;21.05;;
43700;SDS011;58809;47.984;7.964;2022-12-18T00:52:53;39.90;;;22.10;;
43700;SDS011;58809;47.984;7.964;2022-12-18T00:55:54;35.28;;;21.73;;
43700;SDS011;58809;47.984;7.964;2022-12-18T00:58:56;32.15;;;18.52;;
43700;SDS011;58809;47.984;7.964;2022-12-18T01:01:58;34.10;;;18.55;;
43700;SDS011;58809;47.984;7.964;2022-12-18T01:05:00;34.67;;;19.48;;
43700;SDS011;58809;47.984;7.964;2022-12-18T01:08:02;36.75;;;20.70;;
43700;SDS011;58809;47.984;7.964;2022-12-18T01:11:12;36.85;;;19.70;;
43700;SDS011;58809;47.984;7.964;2022-12-18T01:14:16;37.47;;;19.92;;
43700;SDS011;58809;47.984;7.964;2022-12-18T01:17:17;39.75;;;20.00;;
43700;SDS011;58809;47.984;7.964;2022-12-18T01:20:19;31.60;;;17.48;;
43700;SDS011;58809;47.984;7.964;2022-12-18T01:23:21;32.90;;;18.20;;
43700;SDS011;58809;47.984;7.964;2022-12-18T01:26:23;32.67;;;17.83;;
43700;SDS011;58809;47.984;7.964;2022-12-18T01:32:29;30.40;;;16.85;;
43700;SDS011;58809;47.984;7.964;2022-12-18T01:38:36;27.25;;;15.73;;
43700;SDS011;58809;47.984;7.964;2022-12-18T01:41:37;33.38;;;16.77;;
43700;SDS011;58809;47.984;7.964;2022-12-18T01:48:17;25.75;;;14.65;;
43700;SDS011;58809;47.984;7.964;2022-12-18T01:51:19;30.73;;;17.15;;
43700;SDS011;58809;47.984;7.964;2022-12-18T01:54:21;26.45;;;15.60;;
43700;SDS011;58809;47.984;7.964;2022-12-18T01:57:24;28.75;;;16.80;;
43700;SDS011;58809;47.984;7.964;2022-12-18T02:00:27;28.00;;;14.88;;
43700;SDS011;58809;47.984;7.964;2022-12-18T02:03:29;25.30;;;16.02;;
43700;SDS011;58809;47.984;7.964;2022-12-18T02:06:34;26.50;;;15.32;;
43700;SDS011;58809;47.984;7.964;2022-12-18T02:09:45;26.58;;;15.02;;
43700;SDS011;58809;47.984;7.964;2022-12-18T02:13:08;28.85;;;15.38;;
43700;SDS011;58809;47.984;7.964;2022-12-18T02:23:01;28.00;;;16.48;;
43700;SDS011;58809;47.984;7.964;2022-12-18T02:26:37;29.85;;;15.25;;
43700;SDS011;58809;47.984;7.964;2022-12-18T02:30:03;27.10;;;15.43;;
43700;SDS011;58809;47.984;7.964;2022-12-18T02:33:06;25.80;;;15.95;;
43700;SDS011;58809;47.984;7.964;2022-12-18T02:36:12;25.33;;;15.88;;
43700;SDS011;58809;47.984;7.964;2022-12-18T02:39:17;23.23;;;14.43;;
43700;SDS011;58809;47.984;7.964;2022-12-18T02:42:31;23.23;;;13.80;;
43700;SDS011;58809;47.984;7.964;2022-12-18T02:45:35;25.63;;;14.07;;
43700;SDS011;58809;47.984;7.964;2022-12-18T02:48:37;24.25;;;13.70;;
43700;SDS011;58809;47.984;7.964;2022-12-18T02:51:44;23.25;;;14.10;;
43700;SDS011;58809;47.984;7.964;2022-12-18T02:58:20;26.95;;;14.00;;
43700;SDS011;58809;47.984;7.964;2022-12-18T03:01:51;24.60;;;13.20;;
43700;SDS011;58809;47.984;7.964;2022-12-18T03:05:03;26.25;;;13.98;;
43700;SDS011;58809;47.984;7.964;2022-12-18T03:08:27;21.73;;;12.40;;
43700;SDS011;58809;47.984;7.964;2022-12-18T03:11:33;21.27;;;12.85;;
43700;SDS011;58809;47.984;7.964;2022-12-18T03:15:01;24.07;;;14.23;;
43700;SDS011;58809;47.984;7.964;2022-12-18T03:18:29;24.60;;;13.30;;
43700;SDS011;58809;47.984;7.964;2022-12-18T03:21:43;22.45;;;13.45;;
43700;SDS011;58809;47.984;7.964;2022-12-18T03:24:50;24.40;;;14.35;;
43700;SDS011;58809;47.984;7.964;2022-12-18T03:27:55;22.08;;;12.30;;
43700;SDS011;58809;47.984;7.964;2022-12-18T03:31:00;20.27;;;13.30;;
43700;SDS011;58809;47.984;7.964;2022-12-18T03:34:04;22.70;;;11.82;;
43700;SDS011;58809;47.984;7.964;2022-12-18T03:37:17;21.98;;;13.05;;
43700;SDS011;58809;47.984;7.964;2022-12-18T03:40:20;21.63;;;12.25;;
43700;SDS011;58809;47.984;7.964;2022-12-18T03:43:30;24.98;;;11.90;;
43700;SDS011;58809;47.984;7.964;2022-12-18T03:50:20;21.77;;;11.30;;
43700;SDS011;58809;47.984;7.964;2022-12-18T03:56:48;18.67;;;11.30;;
43700;SDS011;58809;47.984;7.964;2022-12-18T04:00:08;18.92;;;10.88;;
43700;SDS011;58809;47.984;7.964;2022-12-18T04:03:23;19.55;;;12.10;;
43700;SDS011;58809;47.984;7.964;2022-12-18T04:06:27;19.27;;;10.85;;
43700;SDS011;58809;47.984;7.964;2022-12-18T04:09:31;18.92;;;11.55;;
43700;SDS011;58809;47.984;7.964;2022-12-18T04:12:36;20.30;;;11.80;;
43700;SDS011;58809;47.984;7.964;2022-12-18T04:15:39;20.98;;;11.43;;
43700;SDS011;58809;47.984;7.964;2022-12-18T04:18:46;20.08;;;10.70;;
43700;SDS011;58809;47.984;7.964;2022-12-18T04:21:48;17.98;;;10.30;;
43700;SDS011;58809;47.984;7.964;2022-12-18T04:24:51;21.63;;;10.73;;
43700;SDS011;58809;47.984;7.964;2022-12-18T04:28:02;16.98;;;10.10;;
43700;SDS011;58809;47.984;7.964;2022-12-18T04:31:04;14.45;;;8.23;;
43700;SDS011;58809;47.984;7.964;2022-12-18T04:34:06;18.20;;;9.93;;
43700;SDS011;58809;47.984;7.964;2022-12-18T04:37:13;18.77;;;9.70;;
43700;SDS011;58809;47.984;7.964;2022-12-18T04:40:16;15.23;;;9.85;;
43700;SDS011;58809;47.984;7.964;2022-12-18T04:43:20;15.35;;;9.20;;
43700;SDS011;58809;47.984;7.964;2022-12-18T04:46:22;16.17;;;8.40;;
43700;SDS011;58809;47.984;7.964;2022-12-18T04:49:24;15.65;;;8.27;;
43700;SDS011;58809;47.984;7.964;2022-12-18T04:52:26;12.95;;;7.35;;
43700;SDS011;58809;47.984;7.964;2022-12-18T04:55:27;12.30;;;7.82;;
43700;SDS011;58809;47.984;7.964;2022-12-18T04:58:29;15.60;;;7.80;;
43700;SDS011;58809;47.984;7.964;2022-12-18T05:01:30;12.50;;;7.90;;
43700;SDS011;58809;47.984;7.964;2022-12-18T05:04:35;15.57;;;7.18;;
43700;SDS011;58809;47.984;7.964;2022-12-18T05:07:36;19.65;;;9.05;;
43700;SDS011;58809;47.984;7.964;2022-12-18T05:10:38;13.43;;;7.80;;
43700;SDS011;58809;47.984;7.964;2022-12-18T05:13:40;15.20;;;9.55;;
43700;SDS011;58809;47.984;7.964;2022-12-18T05:16:42;15.98;;;9.13;;
43700;SDS011;58809;47.984;7.964;2022-12-18T05:19:44;15.40;;;8.80;;
43700;SDS011;58809;47.984;7.964;2022-12-18T05:22:45;13.77;;;9.43;;
43700;SDS011;58809;47.984;7.964;2022-12-18T05:25:57;13.15;;;8.95;;
43700;SDS011;58809;47.984;7.964;2022-12-18T05:32:02;11.90;;;7.38;;
43700;SDS011;58809;47.984;7.964;2022-12-18T05:35:04;12.25;;;7.38;;
43700;SDS011;58809;47.984;7.964;2022-12-18T05:38:07;13.67;;;7.43;;
43700;SDS011;58809;47.984;7.964;2022-12-18T05:41:08;10.75;;;6.28;;
43700;SDS011;58809;47.984;7.964;2022-12-18T05:44:10;18.10;;;7.65;;
43700;SDS011;58809;47.984;7.964;2022-12-18T05:47:12;14.38;;;10.20;;
43700;SDS011;58809;47.984;7.964;2022-12-18T05:50:14;22.40;;;11.75;;
43700;SDS011;58809;47.984;7.964;2022-12-18T05:53:16;22.13;;;10.88;;
43700;SDS011;58809;47.984;7.964;2022-12-18T05:56:21;10.85;;;7.32;;
43700;SDS011;58809;47.984;7.964;2022-12-18T05:59:23;18.70;;;11.52;;
43700;SDS011;58809;47.984;7.964;2022-12-18T06:02:25;18.50;;;11.50;;
43700;SDS011;58809;47.984;7.964;2022-12-18T06:05:27;14.52;;;9.85;;
43700;SDS011;58809;47.984;7.964;2022-12-18T06:08:29;16.90;;;9.25;;
43700;SDS011;58809;47.984;7.964;2022-12-18T06:11:30;16.48;;;7.18;;
43700;SDS011;58809;47.984;7.964;2022-12-18T06:14:32;11.35;;;6.35;;
43700;SDS011;58809;47.984;7.964;2022-12-18T06:17:34;13.80;;;9.25;;
43700;SDS011;58809;47.984;7.964;2022-12-18T06:20:35;14.18;;;7.95;;
43700;SDS011;58809;47.984;7.964;2022-12-18T06:23:38;12.82;;;8.73;;
43700;SDS011;58809;47.984;7.964;2022-12-18T06:26:40;10.82;;;7.57;;
43700;SDS011;58809;47.984;7.964;2022-12-18T06:29:42;11.13;;;6.95;;
43700;SDS011;58809;47.984;7.964;2022-12-18T06:32:44;13.63;;;7.55;;
43700;SDS011;58809;47.984;7.964;2022-12-18T06:35:48;14.85;;;8.40;;
43700;SDS011;58809;47.984;7.964;2022-12-18T06:38:50;15.55;;;8.70;;
43700;SDS011;58809;47.984;7.964;2022-12-18T06:41:51;11.93;;;8.52;;
43700;SDS011;58809;47.984;7.964;2022-12-18T06:44:53;13.32;;;7.90;;
43700;SDS011;58809;47.984;7.964;2022-12-18T06:47:54;11.35;;;7.15;;
43700;SDS011;58809;47.984;7.964;2022-12-18T06:50:57;13.73;;;7.68;;
43700;SDS011;58809;47.984;7.964;2022-12-18T06:53:59;11.60;;;7.13;;
43700;SDS011;58809;47.984;7.964;2022-12-18T06:57:01;13.32;;;7.40;;
43700;SDS011;58809;47.984;7.964;2022-12-18T07:00:03;14.32;;;7.85;;
43700;SDS011;58809;47.984;7.964;2022-12-18T07:03:07;13.68;;;8.23;;
43700;SDS011;58809;47.984;7.964;2022-12-18T07:06:13;14.15;;;8.25;;
43700;SDS011;58809;47.984;7.964;2022-12-18T07:09:16;16.13;;;8.02;;
43700;SDS011;58809;47.984;7.964;2022-12-18T07:12:17;15.50;;;9.48;;
43700;SDS011;58809;47.984;7.964;2022-12-18T07:15:19;14.38;;;9.80;;
43700;SDS011;58809;47.984;7.964;2022-12-18T07:18:21;18.30;;;10.93;;
43700;SDS011;58809;47.984;7.964;2022-12-18T07:21:22;18.05;;;10.05;;
43700;SDS011;58809;47.984;7.964;2022-12-18T07:24:25;15.40;;;8.93;;
43700;SDS011;58809;47.984;7.964;2022-12-18T07:27:26;14.55;;;8.50;;
43700;SDS011;58809;47.984;7.964;2022-12-18T07:30:28;13.82;;;8.70;;
43700;SDS011;58809;47.984;7.964;2022-12-18T07:33:30;14.15;;;7.43;;
43700;SDS011;58809;47.984;7.964;2022-12-18T07:36:32;12.05;;;7.95;;
43700;SDS011;58809;47.984;7.964;2022-12-18T07:39:34;12.48;;;7.68;;
43700;SDS011;58809;47.984;7.964;2022-12-18T07:42:41;11.95;;;6.90;;
43700;SDS011;58809;47.984;7.964;2022-12-18T07:45:43;12.18;;;7.70;;
43700;SDS011;58809;47.984;7.964;2022-12-18T07:48:45;13.90;;;7.90;;
43700;SDS011;58809;47.984;7.964;2022-12-18T07:51:50;15.38;;;9.73;;
43700;SDS011;58809;47.984;7.964;2022-12-18T07:54:52;15.18;;;8.60;;
43700;SDS011;58809;47.984;7.964;2022-12-18T07:57:53;17.10;;;10.73;;
43700;SDS011;58809;47.984;7.964;2022-12-18T08:01:11;18.10;;;10.45;;
43700;SDS011;58809;47.984;7.964;2022-12-18T08:04:13;18.00;;;13.48;;
43700;SDS011;58809;47.984;7.964;2022-12-18T08:07:15;16.95;;;10.02;;
43700;SDS011;58809;47.984;7.964;2022-12-18T08:10:16;13.40;;;8.27;;
43700;SDS011;58809;47.984;7.964;2022-12-18T08:13:18;11.32;;;7.35;;
43700;SDS011;58809;47.984;7.964;2022-12-18T08:16:20;14.75;;;8.50;;
43700;SDS011;58809;47.984;7.964;2022-12-18T08:19:23;14.18;;;7.97;;
43700;SDS011;58809;47.984;7.964;2022-12-18T08:22:25;12.95;;;8.13;;
43700;SDS011;58809;47.984;7.964;2022-12-18T08:25:26;17.70;;;9.50;;
43700;SDS011;58809;47.984;7.964;2022-12-18T08:28:28;13.13;;;8.10;;
43700;SDS011;58809;47.984;7.964;2022-12-18T08:31:32;17.35;;;8.65;;
43700;SDS011;58809;47.984;7.964;2022-12-18T08:34:37;14.35;;;8.95;;
43700;SDS011;58809;47.984;7.964;2022-12-18T08:37:39;18.40;;;11.18;;
43700;SDS011;58809;47.984;7.964;2022-12-18T08:40:42;20.67;;;11.38;;
43700;SDS011;58809;47.984;7.964;2022-12-18T08:43:44;26.48;;;14.73;;
43700;SDS011;58809;47.984;7.964;2022-12-18T08:47:07;34.25;;;17.00;;
43700;SDS011;58809;47.984;7.964;2022-12-18T08:50:09;37.95;;;19.38;;
43700;SDS011;58809;47.984;7.964;2022-12-18T08:53:12;40.73;;;20.47;;
43700;SDS011;58809;47.984;7.964;2022-12-18T08:56:14;39.45;;;22.15;;
43700;SDS011;58809;47.984;7.964;2022-12-18T08:59:17;43.40;;;21.85;;
43700;SDS011;58809;47.984;7.964;2022-12-18T09:02:21;38.47;;;20.38;;
43700;SDS011;58809;47.984;7.964;2022-12-18T09:05:22;33.53;;;18.92;;
43700;SDS011;58809;47.984;7.964;2022-12-18T09:08:24;23.17;;;14.77;;
43700;SDS011;58809;47.984;7.964;2022-12-18T09:11:27;27.25;;;15.23;;
43700;SDS011;58809;47.984;7.964;2022-12-18T09:14:30;26.08;;;15.20;;
43700;SDS011;58809;47.984;7.964;2022-12-18T09:17:31;24.95;;;16.10;;
43700;SDS011;58809;47.984;7.964;2022-12-18T09:20:33;32.53;;;18.17;;
43700;SDS011;58809;47.984;7.964;2022-12-18T09:23:35;21.85;;;15.68;;
43700;SDS011;58809;47.984;7.964;2022-12-18T09:26:36;24.77;;;15.50;;
43700;SDS011;58809;47.984;7.964;2022-12-18T09:29:39;23.88;;;13.77;;
43700;SDS011;58809;47.984;7.964;2022-12-18T09:32:41;23.67;;;13.52;;
43700;SDS011;58809;47.984;7.964;2022-12-18T09:35:43;21.77;;;14.13;;
43700;SDS011;58809;47.984;7.964;2022-12-18T09:38:46;27.25;;;15.63;;
43700;SDS011;58809;47.984;7.964;2022-12-18T09:41:51;24.52;;;16.45;;
43700;SDS011;58809;47.984;7.964;2022-12-18T09:44:58;27.05;;;15.93;;
43700;SDS011;58809;47.984;7.964;2022-12-18T09:48:03;36.10;;;20.17;;
43700;SDS011;58809;47.984;7.964;2022-12-18T09:55:47;30.80;;;16.33;;
43700;SDS011;58809;47.984;7.964;2022-12-18T09:58:53;31.55;;;15.90;;
43700;SDS011;58809;47.984;7.964;2022-12-18T10:01:56;27.20;;;14.15;;
43700;SDS011;58809;47.984;7.964;2022-12-18T10:05:07;24.33;;;14.05;;
43700;SDS011;58809;47.984;7.964;2022-12-18T10:08:22;22.35;;;13.05;;
43700;SDS011;58809;47.984;7.964;2022-12-18T10:15:01;36.40;;;16.42;;
43700;SDS011;58809;47.984;7.964;2022-12-18T10:22:11;20.13;;;12.38;;
43700;SDS011;58809;47.984;7.964;2022-12-18T10:25:21;19.25;;;13.00;;
43700;SDS011;58809;47.984;7.964;2022-12-18T10:28:39;20.98;;;12.82;;
43700;SDS011;58809;47.984;7.964;2022-12-18T10:31:43;21.58;;;13.60;;
43700;SDS011;58809;47.984;7.964;2022-12-18T10:34:45;16.83;;;11.55;;
43700;SDS011;58809;47.984;7.964;2022-12-18T10:38:20;26.35;;;16.60;;
43700;SDS011;58809;47.984;7.964;2022-12-18T10:41:25;33.00;;;19.42;;
43700;SDS011;58809;47.984;7.964;2022-12-18T10:44:29;23.17;;;14.38;;
43700;SDS011;58809;47.984;7.964;2022-12-18T10:47:31;24.80;;;16.88;;
43700;SDS011;58809;47.984;7.964;2022-12-18T10:50:36;25.50;;;15.35;;
43700;SDS011;58809;47.984;7.964;2022-12-18T10:57:14;20.77;;;13.60;;
43700;SDS011;58809;47.984;7.964;2022-12-18T11:00:31;23.27;;;13.77;;
43700;SDS011;58809;47.984;7.964;2022-12-18T11:03:33;42.65;;;23.30;;
43700;SDS011;58809;47.984;7.964;2022-12-18T11:06:52;32.00;;;20.58;;
43700;SDS011;58809;47.984;7.964;2022-12-18T11:10:02;34.17;;;19.17;;
43700;SDS011;58809;47.984;7.964;2022-12-18T11:13:11;34.22;;;19.45;;
43700;SDS011;58809;47.984;7.964;2022-12-18T11:16:20;31.55;;;19.55;;
43700;SDS011;58809;47.984;7.964;2022-12-18T11:19:33;22.55;;;13.75;;
43700;SDS011;58809;47.984;7.964;2022-12-18T11:22:36;25.38;;;15.25;;
43700;SDS011;58809;47.984;7.964;2022-12-18T11:25:39;19.92;;;12.85;;
43700;SDS011;58809;47.984;7.964;2022-12-18T11:28:52;23.52;;;14.38;;
43700;SDS011;58809;47.984;7.964;2022-12-18T11:32:19;25.90;;;15.45;;
43700;SDS011;58809;47.984;7.964;2022-12-18T11:38:52;23.10;;;15.20;;
43700;SDS011;58809;47.984;7.964;2022-12-18T11:41:58;21.77;;;15.40;;
43700;SDS011;58809;47.984;7.964;2022-12-18T11:48:18;26.58;;;16.08;;
43700;SDS011;58809;47.984;7.964;2022-12-18T11:51:32;27.15;;;17.27;;
43700;SDS011;58809;47.984;7.964;2022-12-18T11:54:38;26.15;;;17.38;;
43700;SDS011;58809;47.984;7.964;2022-12-18T12:10:40;18.95;;;12.27;;
43700;SDS011;58809;47.984;7.964;2022-12-18T12:14:01;21.55;;;13.43;;
43700;SDS011;58809;47.984;7.964;2022-12-18T12:17:39;21.63;;;14.63;;
43700;SDS011;58809;47.984;7.964;2022-12-18T12:24:03;52.33;;;19.65;;
43700;SDS011;58809;47.984;7.964;2022-12-18T12:34:14;36.70;;;21.15;;
43700;SDS011;58809;47.984;7.964;2022-12-18T12:37:33;33.22;;;22.00;;
43700;SDS011;58809;47.984;7.964;2022-12-18T12:41:00;31.92;;;21.33;;
43700;SDS011;58809;47.984;7.964;2022-12-18T12:44:07;37.40;;;23.42;;
43700;SDS011;58809;47.984;7.964;2022-12-18T12:47:19;34.53;;;22.75;;
43700;SDS011;58809;47.984;7.964;2022-12-18T12:50:24;36.30;;;22.60;;
43700;SDS011;58809;47.984;7.964;2022-12-18T12:53:29;33.88;;;21.23;;
43700;SDS011;58809;47.984;7.964;2022-12-18T13:00:00;37.92;;;23.98;;
43700;SDS011;58809;47.984;7.964;2022-12-18T13:06:42;35.28;;;22.95;;
43700;SDS011;58809;47.984;7.964;2022-12-18T13:13:13;36.22;;;22.42;;
43700;SDS011;58809;47.984;7.964;2022-12-18T13:16:24;34.70;;;22.65;;
43700;SDS011;58809;47.984;7.964;2022-12-18T13:19:31;37.65;;;23.75;;
43700;SDS011;58809;47.984;7.964;2022-12-18T13:25:40;31.30;;;21.90;;
43700;SDS011;58809;47.984;7.964;2022-12-18T13:32:01;34.58;;;23.13;;
43700;SDS011;58809;47.984;7.964;2022-12-18T13:35:51;33.03;;;23.33;;
43700;SDS011;58809;47.984;7.964;2022-12-18T13:41:33;34.80;;;23.33;;
43700;SDS011;58809;47.984;7.964;2022-12-18T13:44:39;35.78;;;21.67;;
43700;SDS011;58809;47.984;7.964;2022-12-18T13:47:42;32.95;;;21.30;;
43700;SDS011;58809;47.984;7.964;2022-12-18T13:50:52;33.33;;;21.30;;
43700;SDS011;58809;47.984;7.964;2022-12-18T13:57:36;39.20;;;25.48;;
43700;SDS011;58809;47.984;7.964;2022-12-18T14:00:43;36.72;;;25.00;;
43700;SDS011;58809;47.984;7.964;2022-12-18T14:03:46;36.13;;;23.63;;
43700;SDS011;58809;47.984;7.964;2022-12-18T14:06:49;33.95;;;24.52;;
43700;SDS011;58809;47.984;7.964;2022-12-18T14:09:57;35.80;;;24.30;;
43700;SDS011;58809;47.984;7.964;2022-12-18T14:13:24;37.40;;;25.73;;
43700;SDS011;58809;47.984;7.964;2022-12-18T14:16:30;43.03;;;25.35;;
43700;SDS011;58809;47.984;7.964;2022-12-18T14:19:33;34.30;;;23.27;;
43700;SDS011;58809;47.984;7.964;2022-12-18T14:22:35;37.90;;;25.63;;
43700;SDS011;58809;47.984;7.964;2022-12-18T14:25:37;42.60;;;27.42;;
43700;SDS011;58809;47.984;7.964;2022-12-18T14:28:43;40.03;;;28.25;;
43700;SDS011;58809;47.984;7.964;2022-12-18T14:31:45;44.50;;;28.65;;
43700;SDS011;58809;47.984;7.964;2022-12-18T14:34:48;52.90;;;32.28;;
43700;SDS011;58809;47.984;7.964;2022-12-18T14:37:51;46.35;;;29.25;;
43700;SDS011;58809;47.984;7.964;2022-12-18T14:40:53;48.00;;;30.13;;
43700;SDS011;58809;47.984;7.964;2022-12-18T14:44:07;51.60;;;33.60;;
43700;SDS011;58809;47.984;7.964;2022-12-18T14:47:13;45.35;;;29.70;;
43700;SDS011;58809;47.984;7.964;2022-12-18T14:50:16;44.20;;;28.75;;
43700;SDS011;58809;47.984;7.964;2022-12-18T14:53:19;44.30;;;29.85;;
43700;SDS011;58809;47.984;7.964;2022-12-18T14:56:31;45.90;;;28.85;;
43700;SDS011;58809;47.984;7.964;2022-12-18T14:59:34;42.30;;;29.38;;
43700;SDS011;58809;47.984;7.964;2022-12-18T15:02:36;46.70;;;30.10;;
43700;SDS011;58809;47.984;7.964;2022-12-18T15:05:39;46.20;;;28.95;;
43700;SDS011;58809;47.984;7.964;2022-12-18T15:08:47;49.45;;;29.55;;
43700;SDS011;58809;47.984;7.964;2022-12-18T15:11:49;41.53;;;28.42;;
43700;SDS011;58809;47.984;7.964;2022-12-18T15:14:56;44.63;;;26.83;;
43700;SDS011;58809;47.984;7.964;2022-12-18T15:18:02;44.03;;;27.08;;
43700;SDS011;58809;47.984;7.964;2022-12-18T15:21:08;40.30;;;26.23;;
43700;SDS011;58809;47.984;7.964;2022-12-18T15:24:16;42.47;;;25.35;;
43700;SDS011;58809;47.984;7.964;2022-12-18T15:30:37;42.33;;;26.73;;
43700;SDS011;58809;47.984;7.964;2022-12-18T15:33:39;45.08;;;27.83;;
43700;SDS011;58809;47.984;7.964;2022-12-18T15:36:47;41.85;;;26.52;;
43700;SDS011;58809;47.984;7.964;2022-12-18T15:39:49;39.38;;;24.55;;
43700;SDS011;58809;47.984;7.964;2022-12-18T15:42:51;39.83;;;24.35;;
43700;SDS011;58809;47.984;7.964;2022-12-18T15:46:21;39.33;;;24.58;;
43700;SDS011;58809;47.984;7.964;2022-12-18T15:49:24;40.58;;;25.30;;
43700;SDS011;58809;47.984;7.964;2022-12-18T15:52:25;36.05;;;23.50;;
43700;SDS011;58809;47.984;7.964;2022-12-18T15:55:27;36.08;;;23.52;;
43700;SDS011;58809;47.984;7.964;2022-12-18T15:58:51;35.83;;;23.55;;
43700;SDS011;58809;47.984;7.964;2022-12-18T16:02:00;35.88;;;24.02;;
43700;SDS011;58809;47.984;7.964;2022-12-18T16:05:02;38.03;;;24.10;;
43700;SDS011;58809;47.984;7.964;2022-12-18T16:08:04;35.85;;;23.35;;
43700;SDS011;58809;47.984;7.964;2022-12-18T16:11:08;37.75;;;23.85;;
43700;SDS011;58809;47.984;7.964;2022-12-18T16:14:41;37.00;;;24.67;;
43700;SDS011;58809;47.984;7.964;2022-12-18T16:17:44;41.40;;;28.05;;
43700;SDS011;58809;47.984;7.964;2022-12-18T16:20:48;46.55;;;30.27;;
43700;SDS011;58809;47.984;7.964;2022-12-18T16:23:50;39.60;;;26.95;;
43700;SDS011;58809;47.984;7.964;2022-12-18T16:26:52;43.03;;;27.02;;
43700;SDS011;58809;47.984;7.964;2022-12-18T16:29:55;40.72;;;29.30;;
43700;SDS011;58809;47.984;7.964;2022-12-18T16:32:57;45.63;;;29.13;;
43700;SDS011;58809;47.984;7.964;2022-12-18T16:35:59;41.85;;;27.92;;
43700;SDS011;58809;47.984;7.964;2022-12-18T16:39:01;44.90;;;30.00;;
43700;SDS011;58809;47.984;7.964;2022-12-18T16:42:06;45.15;;;30.40;;
43700;SDS011;58809;47.984;7.964;2022-12-18T16:45:15;44.95;;;29.52;;
43700;SDS011;58809;47.984;7.964;2022-12-18T16:48:18;43.40;;;29.77;;
43700;SDS011;58809;47.984;7.964;2022-12-18T16:51:19;47.88;;;29.63;;
43700;SDS011;58809;47.984;7.964;2022-12-18T16:54:21;44.33;;;29.60;;
43700;SDS011;58809;47.984;7.964;2022-12-18T16:57:22;44.15;;;29.88;;
43700;SDS011;58809;47.984;7.964;2022-12-18T17:00:25;46.17;;;28.13;;
43700;SDS011;58809;47.984;7.964;2022-12-18T17:03:27;42.13;;;26.80;;
43700;SDS011;58809;47.984;7.964;2022-12-18T17:06:30;41.65;;;28.40;;
43700;SDS011;58809;47.984;7.964;2022-12-18T17:09:34;51.30;;;30.75;;
43700;SDS011;58809;47.984;7.964;2022-12-18T17:12:36;41.33;;;29.02;;
43700;SDS011;58809;47.984;7.964;2022-12-18T17:15:38;46.63;;;31.05;;
43700;SDS011;58809;47.984;7.964;2022-12-18T17:18:39;50.47;;;35.55;;
43700;SDS011;58809;47.984;7.964;2022-12-18T17:21:42;56.22;;;38.28;;
43700;SDS011;58809;47.984;7.964;2022-12-18T17:27:47;48.75;;;33.55;;
43700;SDS011;58809;47.984;7.964;2022-12-18T17:30:54;47.33;;;32.17;;
43700;SDS011;58809;47.984;7.964;2022-12-18T17:33:57;47.80;;;32.78;;
43700;SDS011;58809;47.984;7.964;2022-12-18T17:36:59;45.80;;;32.13;;
43700;SDS011;58809;47.984;7.964;2022-12-18T17:40:01;49.63;;;31.95;;
43700;SDS011;58809;47.984;7.964;2022-12-18T17:43:03;45.67;;;30.30;;
43700;SDS011;58809;47.984;7.964;2022-12-18T17:46:05;48.33;;;31.35;;
43700;SDS011;58809;47.984;7.964;2022-12-18T17:49:11;41.35;;;28.17;;
43700;SDS011;58809;47.984;7.964;2022-12-18T17:52:12;55.20;;;33.72;;
43700;SDS011;58809;47.984;7.964;2022-12-18T17:55:14;53.00;;;34.80;;
43700;SDS011;58809;47.984;7.964;2022-12-18T17:58:16;54.50;;;35.88;;
43700;SDS011;58809;47.984;7.964;2022-12-18T18:01:19;51.83;;;34.22;;
43700;SDS011;58809;47.984;7.964;2022-12-18T18:04:23;58.45;;;37.30;;
43700;SDS011;58809;47.984;7.964;2022-12-18T18:07:25;57.20;;;35.50;;
43700;SDS011;58809;47.984;7.964;2022-12-18T18:10:27;59.10;;;38.53;;
43700;SDS011;58809;47.984;7.964;2022-12-18T18:13:28;50.38;;;33.58;;
43700;SDS011;58809;47.984;7.964;2022-12-18T18:17:02;39.22;;;27.00;;
43700;SDS011;58809;47.984;7.964;2022-12-18T18:20:05;38.58;;;26.95;;
43700;SDS011;58809;47.984;7.964;2022-12-18T18:23:07;40.72;;;27.05;;
43700;SDS011;58809;47.984;7.964;2022-12-18T18:26:08;37.47;;;26.80;;
43700;SDS011;58809;47.984;7.964;2022-12-18T18:29:14;47.58;;;31.75;;
43700;SDS011;58809;47.984;7.964;2022-12-18T18:32:18;49.53;;;34.50;;
43700;SDS011;58809;47.984;7.964;2022-12-18T18:35:19;58.50;;;36.38;;
43700;SDS011;58809;47.984;7.964;2022-12-18T18:38:41;55.08;;;35.53;;
43700;SDS011;58809;47.984;7.964;2022-12-18T18:41:48;51.03;;;32.97;;
43700;SDS011;58809;47.984;7.964;2022-12-18T18:44:51;54.65;;;36.33;;
43700;SDS011;58809;47.984;7.964;2022-12-18T18:47:53;50.42;;;33.90;;
43700;SDS011;58809;47.984;7.964;2022-12-18T18:51:03;52.00;;;34.08;;
43700;SDS011;58809;47.984;7.964;2022-12-18T18:54:12;52.72;;;35.15;;
43700;SDS011;58809;47.984;7.964;2022-12-18T18:57:14;49.22;;;34.67;;
43700;SDS011;58809;47.984;7.964;2022-12-18T19:00:21;49.78;;;34.00;;
43700;SDS011;58809;47.984;7.964;2022-12-18T19:03:23;53.50;;;35.15;;
43700;SDS011;58809;47.984;7.964;2022-12-18T19:06:26;45.25;;;30.40;;
43700;SDS011;58809;47.984;7.964;2022-12-18T19:09:30;46.38;;;30.75;;
43700;SDS011;58809;47.984;7.964;2022-12-18T19:12:32;50.42;;;29.88;;
43700;SDS011;58809;47.984;7.964;2022-12-18T19:16:01;45.97;;;29.15;;
43700;SDS011;58809;47.984;7.964;2022-12-18T19:19:06;47.65;;;37.00;;
43700;SDS011;58809;47.984;7.964;2022-12-18T19:22:08;51.78;;;36.22;;
43700;SDS011;58809;47.984;7.964;2022-12-18T19:25:10;62.50;;;39.25;;
43700;SDS011;58809;47.984;7.964;2022-12-18T19:28:12;47.38;;;32.65;;
43700;SDS011;58809;47.984;7.964;2022-12-18T19:31:22;73.90;;;48.10;;
43700;SDS011;58809;47.984;7.964;2022-12-18T19:34:30;53.38;;;34.38;;
43700;SDS011;58809;47.984;7.964;2022-12-18T19:37:33;50.35;;;33.72;;
43700;SDS011;58809;47.984;7.964;2022-12-18T19:40:39;52.30;;;36.65;;
43700;SDS011;58809;47.984;7.964;2022-12-18T19:43:42;50.72;;;34.88;;
43700;SDS011;58809;47.984;7.964;2022-12-18T19:46:44;47.83;;;32.22;;
43700;SDS011;58809;47.984;7.964;2022-12-18T19:49:49;46.33;;;29.98;;
43700;SDS011;58809;47.984;7.964;2022-12-18T19:52:50;47.53;;;31.48;;